createdAt,value
2019-05-21T00:01:14.112Z,30.82
2019-05-21T00:06:22.329Z,35.38
2019-05-21T00:11:30.285Z,33.80
2019-05-21T00:16:39.176Z,37.78
2019-05-21T00:21:46.917Z,37.27
2019-05-21T00:26:54.856Z,38.98
2019-05-21T00:32:02.758Z,40.96
2019-05-21T00:37:10.893Z,46.23
2019-05-21T00:42:18.970Z,48.59
2019-05-21T00:47:27.083Z,44.98
2019-05-21T00:52:35.259Z,47.24
2019-05-21T00:57:43.012Z,48.00
2019-05-21T01:02:50.816Z,47.79
2019-05-21T01:07:58.678Z,48.65
2019-05-21T01:13:06.498Z,48.71
2019-05-21T01:18:14.514Z,48.95
2019-05-21T01:23:22.413Z,49.62
2019-05-21T01:28:31.053Z,47.96
2019-05-21T01:33:38.910Z,48.55
2019-05-21T01:38:46.889Z,46.05
2019-05-21T01:43:54.931Z,50.12
2019-05-21T01:49:02.817Z,51.40
2019-05-21T01:54:10.620Z,44.89
2019-05-21T01:59:19.021Z,43.40
2019-05-21T02:04:26.805Z,40.55
2019-05-21T02:09:35.140Z,42.28
2019-05-21T02:14:43.145Z,42.57
2019-05-21T02:19:51.114Z,42.26
2019-05-21T02:24:59.293Z,41.60
2019-05-21T02:30:08.733Z,40.48
2019-05-21T02:35:14.734Z,36.85
2019-05-21T02:40:23.325Z,39.21
2019-05-21T02:45:32.564Z,35.96
2019-05-21T02:50:42.990Z,34.03
2019-05-21T02:55:43.781Z,32.24
2019-05-21T03:00:42.091Z,33.36
2019-05-21T03:05:49.981Z,28.74
2019-05-21T03:11:00.181Z,28.76
2019-05-21T03:15:58.183Z,25.48
2019-05-21T03:21:06.523Z,24.73
2019-05-21T03:26:14.460Z,26.46
2019-05-21T03:31:23.126Z,24.98
2019-05-21T03:36:33.856Z,20.90
2019-05-21T03:41:38.387Z,22.74
2019-05-21T03:46:46.249Z,23.37
2019-05-21T03:51:54.131Z,25.94
2019-05-21T03:57:02.384Z,19.99
2019-05-21T04:02:10.430Z,27.27
2019-05-21T04:07:18.668Z,19.69
2019-05-21T04:12:26.569Z,21.07
2019-05-21T04:17:35.011Z,21.06
2019-05-21T04:22:41.981Z,25.76
2019-05-21T04:27:51.080Z,19.32
2019-05-21T04:32:58.954Z,21.76
2019-05-21T04:38:09.757Z,24.01
2019-05-21T04:43:07.766Z,22.38
2019-05-21T04:48:16.011Z,22.31
2019-05-21T04:53:25.181Z,21.64
2019-05-21T04:58:32.947Z,18.77
2019-05-21T05:03:40.917Z,22.85
2019-05-21T05:08:51.761Z,27.05
2019-05-21T05:13:51.692Z,21.18
2019-05-21T05:18:59.754Z,21.93
2019-05-21T05:24:07.605Z,22.02
2019-05-21T05:29:15.767Z,26.05
2019-05-21T05:34:24.622Z,24.56
2019-05-21T05:39:32.622Z,20.37
2019-05-21T05:44:40.724Z,24.18
2019-05-21T05:49:48.630Z,23.57
2019-05-21T05:54:56.574Z,26.42
2019-05-21T06:00:04.583Z,21.71
2019-05-21T06:05:12.255Z,23.21
2019-05-21T06:10:20.180Z,21.68
2019-05-21T06:15:28.259Z,18.99
2019-05-21T06:20:36.184Z,19.41
2019-05-21T06:25:43.935Z,20.33
2019-05-21T06:30:51.775Z,19.69
2019-05-21T06:35:59.581Z,24.40
2019-05-21T06:41:07.422Z,24.74
2019-05-21T06:46:15.258Z,23.92
2019-05-21T06:51:23.227Z,24.34
2019-05-21T06:56:31.379Z,20.80
2019-05-21T07:01:39.256Z,20.40
2019-05-21T07:06:47.193Z,19.49
2019-05-21T07:11:55.051Z,16.76
2019-05-21T07:17:03.079Z,16.82
2019-05-21T07:22:12.958Z,13.77
2019-05-21T07:27:18.342Z,13.26
2019-05-21T07:32:26.398Z,11.26
2019-05-21T07:37:35.423Z,12.48
2019-05-21T07:42:43.216Z,12.34
2019-05-21T07:47:51.123Z,11.98
2019-05-21T07:52:58.991Z,11.48
2019-05-21T07:58:07.074Z,12.42
2019-05-21T08:03:14.902Z,12.66
2019-05-21T08:08:23.070Z,11.46
2019-05-21T08:13:32.307Z,11.38
2019-05-21T08:18:40.562Z,10.51
2019-05-21T08:23:48.891Z,12.04
2019-05-21T08:28:56.776Z,9.57
2019-05-21T08:34:04.547Z,10.88
2019-05-21T08:39:27.368Z,9.37
2019-05-21T08:44:19.717Z,11.01
2019-05-21T08:49:27.579Z,10.07
2019-05-21T08:54:35.428Z,10.83
2019-05-21T08:59:43.286Z,10.29
2019-05-21T09:04:52.551Z,12.34
2019-05-21T09:10:00.622Z,11.81
2019-05-21T09:15:08.458Z,10.90
2019-05-21T09:20:16.441Z,11.09
2019-05-21T09:25:24.867Z,11.71
2019-05-21T09:30:33.205Z,13.12
2019-05-21T09:35:42.213Z,12.29
2019-05-21T09:40:50.187Z,14.77
2019-05-21T09:45:58.329Z,17.37
2019-05-21T09:51:06.581Z,17.94
2019-05-21T09:56:14.353Z,19.96
2019-05-21T10:01:22.402Z,21.79
2019-05-21T10:06:30.932Z,20.86
2019-05-21T10:11:40.952Z,17.28
2019-05-21T10:16:44.677Z,17.13
2019-05-21T10:26:43.758Z,21.54
2019-05-21T10:31:51.514Z,17.83
2019-05-21T10:36:59.566Z,17.23
2019-05-21T10:42:07.407Z,16.61
2019-05-21T10:47:16.389Z,14.68
2019-05-21T10:52:22.713Z,14.88
2019-05-21T10:57:30.625Z,15.36
2019-05-21T11:02:38.700Z,11.09
2019-05-21T11:07:46.869Z,14.13
2019-05-21T11:12:54.789Z,12.04
2019-05-21T11:18:10.467Z,12.54
2019-05-21T11:23:10.243Z,11.78
2019-05-21T11:28:18.259Z,10.39
2019-05-21T11:33:26.352Z,10.93
2019-05-21T11:38:39.852Z,10.38
2019-05-21T11:43:41.877Z,9.46
2019-05-21T11:48:49.850Z,9.53
2019-05-21T11:53:57.791Z,10.06
2019-05-21T11:59:05.660Z,8.54
2019-05-21T12:04:13.380Z,9.83
2019-05-21T12:09:21.389Z,9.41
2019-05-21T12:14:30.491Z,10.12
2019-05-21T12:19:38.536Z,9.71
2019-05-21T12:24:46.365Z,10.04
2019-05-21T12:29:54.383Z,10.23
2019-05-21T12:35:02.228Z,10.29
2019-05-21T12:40:10.496Z,10.18
2019-05-21T12:45:18.582Z,10.91
2019-05-21T12:50:26.545Z,10.42
2019-05-21T12:55:34.316Z,10.59
2019-05-21T13:00:42.959Z,11.59
2019-05-21T13:05:50.871Z,11.79
2019-05-21T13:10:59.059Z,11.00
2019-05-21T13:16:06.977Z,10.93
2019-05-21T13:21:15.318Z,11.73
2019-05-21T13:26:23.540Z,12.79
2019-05-21T13:31:32.470Z,12.47
2019-05-21T13:36:40.287Z,13.45
2019-05-21T13:41:48.132Z,12.47
2019-05-21T13:46:56.045Z,13.58
2019-05-21T13:52:03.745Z,16.28
2019-05-21T13:57:11.445Z,14.26
2019-05-21T14:02:19.091Z,15.37
2019-05-21T14:07:27.737Z,16.70
2019-05-21T14:12:35.517Z,19.20
2019-05-21T14:17:43.271Z,18.35
2019-05-21T14:22:51.996Z,17.29
2019-05-21T14:27:59.698Z,20.15
2019-05-21T14:33:07.554Z,20.51
2019-05-21T14:38:15.377Z,21.12
2019-05-21T14:43:24.105Z,24.32
2019-05-21T14:48:31.889Z,24.29
2019-05-21T14:53:39.685Z,24.05
2019-05-21T14:58:47.478Z,24.01
2019-05-21T15:03:55.351Z,22.18
2019-05-21T15:09:03.091Z,24.76
2019-05-21T15:14:10.986Z,23.79
2019-05-21T15:19:18.826Z,24.97
2019-05-21T15:24:26.589Z,25.07
2019-05-21T15:29:35.358Z,26.75
2019-05-21T15:34:43.226Z,26.73
2019-05-21T15:39:50.853Z,25.77
2019-05-21T15:44:59.396Z,23.62
2019-05-21T15:50:07.113Z,26.09
2019-05-21T15:55:14.868Z,26.51
2019-05-21T16:00:22.663Z,21.89
2019-05-21T16:05:30.534Z,17.32
2019-05-21T16:10:38.152Z,18.40
2019-05-21T16:15:45.869Z,14.97
2019-05-21T16:20:53.547Z,15.40
2019-05-21T16:26:01.484Z,14.03
2019-05-21T16:31:08.643Z,13.70
2019-05-21T16:36:16.430Z,15.49
2019-05-21T16:41:26.141Z,18.66
2019-05-21T16:46:34.182Z,15.30
2019-05-21T16:51:43.550Z,18.78
2019-05-21T16:56:49.211Z,14.39
2019-05-21T17:01:56.965Z,14.65
2019-05-21T17:07:04.440Z,15.40
2019-05-21T17:12:12.969Z,15.64
2019-05-21T17:17:20.961Z,14.84
2019-05-21T17:22:28.910Z,18.95
2019-05-21T17:27:37.310Z,17.25
2019-05-21T17:32:45.410Z,16.07
2019-05-21T17:37:53.654Z,17.50
2019-05-21T17:43:01.578Z,16.85
2019-05-21T17:48:09.482Z,19.02
2019-05-21T17:53:18.043Z,20.98
2019-05-21T17:58:25.922Z,20.57
2019-05-21T18:03:33.767Z,20.58
2019-05-21T18:08:41.600Z,25.66
2019-05-21T18:13:49.610Z,24.52
2019-05-21T18:18:57.518Z,26.29
2019-05-21T18:24:05.374Z,25.78
2019-05-21T18:29:13.583Z,27.83
2019-05-21T18:34:21.649Z,24.51
2019-05-21T18:39:29.798Z,24.78
2019-05-21T18:44:37.588Z,25.76
2019-05-21T18:49:45.436Z,25.60
2019-05-21T18:54:54.424Z,26.68
2019-05-21T19:00:02.270Z,30.06
2019-05-21T19:05:10.132Z,24.34
2019-05-21T19:10:18.085Z,25.35
2019-05-21T19:15:25.945Z,25.33
2019-05-21T19:20:34.077Z,28.68
2019-05-21T19:25:42.511Z,30.47
2019-05-21T19:30:50.867Z,27.46
2019-05-21T19:41:01.257Z,25.92
2019-05-21T19:46:08.940Z,25.83
2019-05-21T19:51:16.698Z,25.14
2019-05-21T19:56:24.413Z,27.85
2019-05-21T20:01:32.401Z,28.72
2019-05-21T20:06:40.377Z,28.86
2019-05-21T20:11:48.154Z,29.62
2019-05-21T20:16:56.039Z,28.07
2019-05-21T20:22:03.913Z,26.92
2019-05-21T20:27:11.621Z,28.39
2019-05-21T20:32:19.582Z,29.30
2019-05-21T20:37:27.349Z,28.36
2019-05-21T20:42:35.118Z,30.45
2019-05-21T20:47:46.017Z,31.11
2019-05-21T20:52:44.402Z,30.50
2019-05-21T20:57:52.098Z,32.52
2019-05-21T21:02:59.929Z,32.86
2019-05-21T21:08:08.540Z,34.36
2019-05-21T21:13:16.565Z,35.65
2019-05-21T21:18:24.395Z,35.29
2019-05-21T21:23:32.229Z,41.70
2019-05-21T21:28:39.950Z,34.46
2019-05-21T21:33:47.709Z,35.42
2019-05-21T21:38:55.367Z,35.44
2019-05-21T21:44:03.111Z,37.90
2019-05-21T21:49:10.920Z,37.93
2019-05-21T21:54:18.769Z,42.94
2019-05-21T21:59:26.450Z,44.07
2019-05-21T22:04:34.517Z,37.27
2019-05-21T22:09:43.271Z,44.79
2019-05-21T22:14:52.505Z,42.65
2019-05-21T22:19:58.371Z,42.22
2019-05-21T22:25:06.054Z,39.76
2019-05-21T22:30:13.926Z,40.19
2019-05-21T22:35:21.710Z,36.86
2019-05-21T22:40:29.460Z,38.19
2019-05-21T22:45:37.157Z,34.92
2019-05-21T22:50:44.913Z,33.36
2019-05-21T22:55:52.694Z,31.70
2019-05-21T23:01:00.404Z,29.25
2019-05-21T23:06:08.109Z,31.99
2019-05-21T23:11:16.716Z,34.18
2019-05-21T23:16:24.526Z,33.37
2019-05-21T23:21:32.359Z,32.01
2019-05-21T23:26:40.124Z,34.77
2019-05-21T23:31:47.795Z,32.86
2019-05-21T23:36:55.678Z,30.93
2019-05-21T23:42:03.354Z,32.46
2019-05-21T23:47:11.183Z,33.65
2019-05-21T23:52:18.959Z,33.76
2019-05-21T23:57:26.766Z,34.92
